<?xml version="1.0" encoding="UTF-8" standalone="no" ?><gpx xmlns="http://www.topografix.com/GPX/1/1" xmlns:gpxx="http://www.garmin.com/xmlschemas/GpxExtensions/v3" xmlns:wptx1="http://www.garmin.com/xmlschemas/WaypointExtension/v1" xmlns:gpxtpx="http://www.garmin.com/xmlschemas/TrackPointExtension/v1" creator="Dakota 20" version="1.1" xmlns:xsi="http://www.w3.org/2001/XMLSchema-instance" xsi:schemaLocation="http://www.topografix.com/GPX/1/1 http://www.topografix.com/GPX/1/1/gpx.xsd http://www.garmin.com/xmlschemas/GpxExtensions/v3 http://www8.garmin.com/xmlschemas/GpxExtensionsv3.xsd http://www.garmin.com/xmlschemas/WaypointExtension/v1 http://www8.garmin.com/xmlschemas/WaypointExtensionv1.xsd http://www.garmin.com/xmlschemas/TrackPointExtension/v1 http://www.garmin.com/xmlschemas/TrackPointExtensionv1.xsd"><metadata><link href="http://www.garmin.com"><text>Garmin International</text></link><time>2014-12-10T14:28:01Z</time></metadata><trk><name>Current Track: 10 DEC 2014 10:02</name><extensions><gpxx:TrackExtension><gpxx:DisplayColor>Cyan</gpxx:DisplayColor></gpxx:TrackExtension></extensions><trkseg><trkpt lat="51.9213481620" lon="-1.8633974902"><ele>181.83</ele><time>2014-12-10T10:02:01Z</time></trkpt><trkpt lat="51.9213474914" lon="-1.8633988313"><ele>181.83</ele><time>2014-12-10T10:02:02Z</time></trkpt><trkpt lat="51.9212924223" lon="-1.8633923773"><ele>181.35</ele><time>2014-12-10T10:02:15Z</time></trkpt><trkpt lat="51.9213229325" lon="-1.8635931239"><ele>181.83</ele><time>2014-12-10T10:02:31Z</time></trkpt><trkpt lat="51.9213381037" lon="-1.8638500292"><ele>182.31</ele><time>2014-12-10T10:02:46Z</time></trkpt><trkpt lat="51.9214403629" lon="-1.8640198465"><ele>183.27</ele><time>2014-12-10T10:03:02Z</time></trkpt><trkpt lat="51.9214775786" lon="-1.8641147297"><ele>183.75</ele><time>2014-12-10T10:03:09Z</time></trkpt><trkpt lat="51.9215142913" lon="-1.8644486647"><ele>184.71</ele><time>2014-12-10T10:03:25Z</time></trkpt><trkpt lat="51.9215576258" lon="-1.8645904027"><ele>184.71</ele><time>2014-12-10T10:03:37Z</time></trkpt><trkpt lat="51.9216071628" lon="-1.8647543527"><ele>185.19</ele><time>2014-12-10T10:03:48Z</time></trkpt><trkpt lat="51.9216596335" lon="-1.8649026286"><ele>186.15</ele><time>2014-12-10T10:03:59Z</time></trkpt><trkpt lat="51.9217891339" lon="-1.8650486413"><ele>187.11</ele><time>2014-12-10T10:04:18Z</time></trkpt><trkpt lat="51.9219134375" lon="-1.8650207296"><ele>188.56</ele><time>2014-12-10T10:04:29Z</time></trkpt><trkpt lat="51.9221778028" lon="-1.8650379963"><ele>187.11</ele><time>2014-12-10T10:04:51Z</time></trkpt><trkpt lat="51.9222265854" lon="-1.8650528323"><ele>187.11</ele><time>2014-12-10T10:04:56Z</time></trkpt><trkpt lat="51.9224773720" lon="-1.8651475478"><ele>186.63</ele><time>2014-12-10T10:05:18Z</time></trkpt><trkpt lat="51.9225474447" lon="-1.8651836738"><ele>186.63</ele><time>2014-12-10T10:05:34Z</time></trkpt><trkpt lat="51.9227206986" lon="-1.8652643915"><ele>185.19</ele><time>2014-12-10T10:05:55Z</time></trkpt><trkpt lat="51.9229967985" lon="-1.8653742783"><ele>183.75</ele><time>2014-12-10T10:06:18Z</time></trkpt><trkpt lat="51.9232023228" lon="-1.8655342888"><ele>182.31</ele><time>2014-12-10T10:06:41Z</time></trkpt><trkpt lat="51.9233741518" lon="-1.8656673934"><ele>179.90</ele><time>2014-12-10T10:07:02Z</time></trkpt><trkpt lat="51.9235697016" lon="-1.8658097181"><ele>177.02</ele><time>2014-12-10T10:07:25Z</time></trkpt><trkpt lat="51.9235764071" lon="-1.8658210337"><ele>177.02</ele><time>2014-12-10T10:07:26Z</time></trkpt><trkpt lat="51.9237644132" lon="-1.8659646995"><ele>177.02</ele><time>2014-12-10T10:07:43Z</time></trkpt><trkpt lat="51.9239301234" lon="-1.8660697248"><ele>177.50</ele><time>2014-12-10T10:08:01Z</time></trkpt><trkpt lat="51.9241195545" lon="-1.8661960401"><ele>177.98</ele><time>2014-12-10T10:08:20Z</time></trkpt><trkpt lat="51.9242701773" lon="-1.8661866523"><ele>181.35</ele><time>2014-12-10T10:08:37Z</time></trkpt><trkpt lat="51.9243577681" lon="-1.8661620934"><ele>181.83</ele><time>2014-12-10T10:08:45Z</time></trkpt><trkpt lat="51.9245682377" lon="-1.8661079463"><ele>182.79</ele><time>2014-12-10T10:09:05Z</time></trkpt><trkpt lat="51.9247264881" lon="-1.8660440762"><ele>184.71</ele><time>2014-12-10T10:09:22Z</time></trkpt><trkpt lat="51.9248850737" lon="-1.8660175893"><ele>184.23</ele><time>2014-12-10T10:09:38Z</time></trkpt><trkpt lat="51.9250522926" lon="-1.8660133146"><ele>183.75</ele><time>2014-12-10T10:09:56Z</time></trkpt><trkpt lat="51.9251918513" lon="-1.8661370315"><ele>181.83</ele><time>2014-12-10T10:10:16Z</time></trkpt><trkpt lat="51.9252948649" lon="-1.8662511930"><ele>179.90</ele><time>2014-12-10T10:10:37Z</time></trkpt><trkpt lat="51.9254302327" lon="-1.8663995527"><ele>178.94</ele><time>2014-12-10T10:10:53Z</time></trkpt><trkpt lat="51.9255423825" lon="-1.8665570486"><ele>178.94</ele><time>2014-12-10T10:11:06Z</time></trkpt><trkpt lat="51.9256664347" lon="-1.8668125290"><ele>178.94</ele><time>2014-12-10T10:11:22Z</time></trkpt><trkpt lat="51.9257867988" lon="-1.8670919817"><ele>177.98</ele><time>2014-12-10T10:11:40Z</time></trkpt><trkpt lat="51.9258546922" lon="-1.8672235776"><ele>177.02</ele><time>2014-12-10T10:11:59Z</time></trkpt><trkpt lat="51.9259098452" lon="-1.8674274255"><ele>175.58</ele><time>2014-12-10T10:12:18Z</time></trkpt><trkpt lat="51.9260554388" lon="-1.8676580954"><ele>173.66</ele><time>2014-12-10T10:12:39Z</time></trkpt><trkpt lat="51.9261001982" lon="-1.8681570701"><ele>172.69</ele><time>2014-12-10T10:13:01Z</time></trkpt><trkpt lat="51.9261616375" lon="-1.8684064317"><ele>170.77</ele><time>2014-12-10T10:13:21Z</time></trkpt><trkpt lat="51.9262052234" lon="-1.8686702941"><ele>169.81</ele><time>2014-12-10T10:13:41Z</time></trkpt><trkpt lat="51.9262742903" lon="-1.8689674325"><ele>168.85</ele><time>2014-12-10T10:13:58Z</time></trkpt><trkpt lat="51.9263135176" lon="-1.8690775707"><ele>168.37</ele><time>2014-12-10T10:14:19Z</time></trkpt><trkpt lat="51.9263210613" lon="-1.8691794947"><ele>167.89</ele><time>2014-12-10T10:14:38Z</time></trkpt><trkpt lat="51.9263569359" lon="-1.8692594580"><ele>167.89</ele><time>2014-12-10T10:14:59Z</time></trkpt><trkpt lat="51.9264054671" lon="-1.8692247570"><ele>168.37</ele><time>2014-12-10T10:15:20Z</time></trkpt><trkpt lat="51.9264312834" lon="-1.8692128547"><ele>166.93</ele><time>2014-12-10T10:15:39Z</time></trkpt><trkpt lat="51.9264234044" lon="-1.8691872898"><ele>167.41</ele><time>2014-12-10T10:15:55Z</time></trkpt><trkpt lat="51.9264762104" lon="-1.8693972565"><ele>169.33</ele><time>2014-12-10T10:16:13Z</time></trkpt><trkpt lat="51.9265254959" lon="-1.8695117533"><ele>169.81</ele><time>2014-12-10T10:16:29Z</time></trkpt><trkpt lat="51.9265292678" lon="-1.8697308563"><ele>169.81</ele><time>2014-12-10T10:16:46Z</time></trkpt><trkpt lat="51.9265296869" lon="-1.8697613664"><ele>169.33</ele><time>2014-12-10T10:17:04Z</time></trkpt><trkpt lat="51.9265309442" lon="-1.8697793037"><ele>169.81</ele><time>2014-12-10T10:17:26Z</time></trkpt><trkpt lat="51.9264805689" lon="-1.8698331155"><ele>170.77</ele><time>2014-12-10T10:17:40Z</time></trkpt><trkpt lat="51.9265183713" lon="-1.8700103927"><ele>174.62</ele><time>2014-12-10T10:17:53Z</time></trkpt><trkpt lat="51.9265161920" lon="-1.8702345248"><ele>176.54</ele><time>2014-12-10T10:18:05Z</time></trkpt><trkpt lat="51.9264646433" lon="-1.8704879098"><ele>179.90</ele><time>2014-12-10T10:18:13Z</time></trkpt><trkpt lat="51.9264563452" lon="-1.8705044221"><ele>179.90</ele><time>2014-12-10T10:18:14Z</time></trkpt><trkpt lat="51.9263871945" lon="-1.8707423005"><ele>182.79</ele><time>2014-12-10T10:18:30Z</time></trkpt><trkpt lat="51.9263679162" lon="-1.8708395306"><ele>184.23</ele><time>2014-12-10T10:18:37Z</time></trkpt><trkpt lat="51.9263412617" lon="-1.8708818592"><ele>183.75</ele><time>2014-12-10T10:18:41Z</time></trkpt><trkpt lat="51.9262509048" lon="-1.8710334878"><ele>185.19</ele><time>2014-12-10T10:18:51Z</time></trkpt><trkpt lat="51.9261436164" lon="-1.8712643255"><ele>187.11</ele><time>2014-12-10T10:19:06Z</time></trkpt><trkpt lat="51.9261156209" lon="-1.8713025469"><ele>188.56</ele><time>2014-12-10T10:19:09Z</time></trkpt><trkpt lat="51.9261078257" lon="-1.8713508267"><ele>188.56</ele><time>2014-12-10T10:19:12Z</time></trkpt><trkpt lat="51.9261235837" lon="-1.8713969272"><ele>188.08</ele><time>2014-12-10T10:19:15Z</time></trkpt><trkpt lat="51.9261690974" lon="-1.8714664131"><ele>189.52</ele><time>2014-12-10T10:19:27Z</time></trkpt><trkpt lat="51.9262206461" lon="-1.8715296127"><ele>189.52</ele><time>2014-12-10T10:19:33Z</time></trkpt><trkpt lat="51.9263358973" lon="-1.8716491386"><ele>189.04</ele><time>2014-12-10T10:19:44Z</time></trkpt><trkpt lat="51.9265070558" lon="-1.8718638830"><ele>188.08</ele><time>2014-12-10T10:20:01Z</time></trkpt><trkpt lat="51.9266400766" lon="-1.8720337003"><ele>188.08</ele><time>2014-12-10T10:20:15Z</time></trkpt><trkpt lat="51.9266889431" lon="-1.8721062876"><ele>187.59</ele><time>2014-12-10T10:20:20Z</time></trkpt><trkpt lat="51.9267623685" lon="-1.8721954711"><ele>187.59</ele><time>2014-12-10T10:20:33Z</time></trkpt><trkpt lat="51.9268060382" lon="-1.8722335249"><ele>187.59</ele><time>2014-12-10T10:20:38Z</time></trkpt><trkpt lat="51.9268388115" lon="-1.8722860795"><ele>188.08</ele><time>2014-12-10T10:20:42Z</time></trkpt><trkpt lat="51.9269481953" lon="-1.8724626862"><ele>188.08</ele><time>2014-12-10T10:20:57Z</time></trkpt><trkpt lat="51.9270761870" lon="-1.8725910969"><ele>187.59</ele><time>2014-12-10T10:21:12Z</time></trkpt><trkpt lat="51.9272082020" lon="-1.8726958707"><ele>187.59</ele><time>2014-12-10T10:21:26Z</time></trkpt><trkpt lat="51.9273514487" lon="-1.8727864791"><ele>187.59</ele><time>2014-12-10T10:21:41Z</time></trkpt><trkpt lat="51.9274510257" lon="-1.8728575576"><ele>188.08</ele><time>2014-12-10T10:21:52Z</time></trkpt><trkpt lat="51.9274835475" lon="-1.8728788476"><ele>188.08</ele><time>2014-12-10T10:21:55Z</time></trkpt><trkpt lat="51.9276492577" lon="-1.8729977030"><ele>188.56</ele><time>2014-12-10T10:22:12Z</time></trkpt><trkpt lat="51.9276588131" lon="-1.8730050791"><ele>188.56</ele><time>2014-12-10T10:22:13Z</time></trkpt><trkpt lat="51.9278114475" lon="-1.8731377646"><ele>188.56</ele><time>2014-12-10T10:22:29Z</time></trkpt><trkpt lat="51.9279294647" lon="-1.8732593022"><ele>188.56</ele><time>2014-12-10T10:22:44Z</time></trkpt><trkpt lat="51.9280696940" lon="-1.8734291196"><ele>190.00</ele><time>2014-12-10T10:23:01Z</time></trkpt><trkpt lat="51.9281813409" lon="-1.8735830951"><ele>190.00</ele><time>2014-12-10T10:23:16Z</time></trkpt><trkpt lat="51.9282630645" lon="-1.8737141881"><ele>190.96</ele><time>2014-12-10T10:23:28Z</time></trkpt><trkpt lat="51.9283708557" lon="-1.8739068042"><ele>190.96</ele><time>2014-12-10T10:23:42Z</time></trkpt><trkpt lat="51.9284737017" lon="-1.8740531523"><ele>191.44</ele><time>2014-12-10T10:23:55Z</time></trkpt><trkpt lat="51.9285535812" lon="-1.8741457723"><ele>192.40</ele><time>2014-12-10T10:24:09Z</time></trkpt><trkpt lat="51.9285738654" lon="-1.8741839100"><ele>191.92</ele><time>2014-12-10T10:24:11Z</time></trkpt><trkpt lat="51.9286581874" lon="-1.8742725067"><ele>191.92</ele><time>2014-12-10T10:24:20Z</time></trkpt><trkpt lat="51.9286838360" lon="-1.8743161764"><ele>191.92</ele><time>2014-12-10T10:24:23Z</time></trkpt><trkpt lat="51.9288114924" lon="-1.8745102175"><ele>192.40</ele><time>2014-12-10T10:24:38Z</time></trkpt><trkpt lat="51.9289492909" lon="-1.8746610917"><ele>192.40</ele><time>2014-12-10T10:24:53Z</time></trkpt><trkpt lat="51.9290745165" lon="-1.8748031650"><ele>192.88</ele><time>2014-12-10T10:25:07Z</time></trkpt><trkpt lat="51.9292144943" lon="-1.8749737367"><ele>191.44</ele><time>2014-12-10T10:25:22Z</time></trkpt><trkpt lat="51.9293425698" lon="-1.8751513492"><ele>190.96</ele><time>2014-12-10T10:25:36Z</time></trkpt><trkpt lat="51.9294493552" lon="-1.8753640819"><ele>190.00</ele><time>2014-12-10T10:25:51Z</time></trkpt><trkpt lat="51.9295323361" lon="-1.8755773176"><ele>189.04</ele><time>2014-12-10T10:26:05Z</time></trkpt><trkpt lat="51.9296238665" lon="-1.8757773936"><ele>188.56</ele><time>2014-12-10T10:26:21Z</time></trkpt><trkpt lat="51.9297146425" lon="-1.8760248274"><ele>186.15</ele><time>2014-12-10T10:26:38Z</time></trkpt><trkpt lat="51.9297676999" lon="-1.8761598598"><ele>184.71</ele><time>2014-12-10T10:26:48Z</time></trkpt><trkpt lat="51.9298978709" lon="-1.8764794618"><ele>182.79</ele><time>2014-12-10T10:27:07Z</time></trkpt><trkpt lat="51.9299971126" lon="-1.8766817171"><ele>182.31</ele><time>2014-12-10T10:27:21Z</time></trkpt><trkpt lat="51.9300272036" lon="-1.8767061923"><ele>182.79</ele><time>2014-12-10T10:27:24Z</time></trkpt><trkpt lat="51.9301775750" lon="-1.8769755866"><ele>181.83</ele><time>2014-12-10T10:27:42Z</time></trkpt><trkpt lat="51.9302160479" lon="-1.8770286441"><ele>181.35</ele><time>2014-12-10T10:27:47Z</time></trkpt><trkpt lat="51.9303699397" lon="-1.8772454001"><ele>181.35</ele><time>2014-12-10T10:28:04Z</time></trkpt><trkpt lat="51.9303876255" lon="-1.8772954401"><ele>181.35</ele><time>2014-12-10T10:28:06Z</time></trkpt><trkpt lat="51.9305294473" lon="-1.8775556143"><ele>181.35</ele><time>2014-12-10T10:28:24Z</time></trkpt><trkpt lat="51.9306385797" lon="-1.8778056465"><ele>180.87</ele><time>2014-12-10T10:28:38Z</time></trkpt><trkpt lat="51.9307019468" lon="-1.8779752962"><ele>180.38</ele><time>2014-12-10T10:28:52Z</time></trkpt><trkpt lat="51.9307822455" lon="-1.8782107439"><ele>180.38</ele><time>2014-12-10T10:29:06Z</time></trkpt><trkpt lat="51.9308699202" lon="-1.8784339540"><ele>180.87</ele><time>2014-12-10T10:29:22Z</time></trkpt><trkpt lat="51.9308783021" lon="-1.8784457725"><ele>180.87</ele><time>2014-12-10T10:29:23Z</time></trkpt><trkpt lat="51.9309756160" lon="-1.8785367161"><ele>181.35</ele><time>2014-12-10T10:29:34Z</time></trkpt><trkpt lat="51.9310337026" lon="-1.8785736803"><ele>181.35</ele><time>2014-12-10T10:29:40Z</time></trkpt><trkpt lat="51.9311314356" lon="-1.8786632828"><ele>183.75</ele><time>2014-12-10T10:29:55Z</time></trkpt><trkpt lat="51.9312044419" lon="-1.8787562381"><ele>185.67</ele><time>2014-12-10T10:30:09Z</time></trkpt><trkpt lat="51.9312971458" lon="-1.8788652029"><ele>187.59</ele><time>2014-12-10T10:30:25Z</time></trkpt><trkpt lat="51.9313170947" lon="-1.8788892590"><ele>188.56</ele><time>2014-12-10T10:30:28Z</time></trkpt><trkpt lat="51.9314258080" lon="-1.8790204357"><ele>189.52</ele><time>2014-12-10T10:30:45Z</time></trkpt><trkpt lat="51.9314253889" lon="-1.8790135626"><ele>189.52</ele><time>2014-12-10T10:31:04Z</time></trkpt><trkpt lat="51.9314248860" lon="-1.8790107965"><ele>189.04</ele><time>2014-12-10T10:31:25Z</time></trkpt><trkpt lat="51.9314276520" lon="-1.8790065218"><ele>190.00</ele><time>2014-12-10T10:31:45Z</time></trkpt><trkpt lat="51.9314387999" lon="-1.8789939489"><ele>189.04</ele><time>2014-12-10T10:32:07Z</time></trkpt><trkpt lat="51.9314431585" lon="-1.8789973855"><ele>189.52</ele><time>2014-12-10T10:32:25Z</time></trkpt><trkpt lat="51.9314478524" lon="-1.8789942004"><ele>189.52</ele><time>2014-12-10T10:32:40Z</time></trkpt><trkpt lat="51.9314471819" lon="-1.8789901771"><ele>190.00</ele><time>2014-12-10T10:33:03Z</time></trkpt><trkpt lat="51.9314981438" lon="-1.8790784385"><ele>189.04</ele><time>2014-12-10T10:33:23Z</time></trkpt><trkpt lat="51.9315754250" lon="-1.8792112917"><ele>189.52</ele><time>2014-12-10T10:33:37Z</time></trkpt><trkpt lat="51.9316808693" lon="-1.8794044945"><ele>188.56</ele><time>2014-12-10T10:33:52Z</time></trkpt><trkpt lat="51.9317765906" lon="-1.8795784190"><ele>187.11</ele><time>2014-12-10T10:34:07Z</time></trkpt><trkpt lat="51.9318614993" lon="-1.8798555247"><ele>187.59</ele><time>2014-12-10T10:34:23Z</time></trkpt><trkpt lat="51.9319288060" lon="-1.8801145256"><ele>186.15</ele><time>2014-12-10T10:34:39Z</time></trkpt><trkpt lat="51.9319842942" lon="-1.8803567626"><ele>186.63</ele><time>2014-12-10T10:34:55Z</time></trkpt><trkpt lat="51.9320433866" lon="-1.8806498777"><ele>187.11</ele><time>2014-12-10T10:35:11Z</time></trkpt><trkpt lat="51.9320495054" lon="-1.8806830700"><ele>186.63</ele><time>2014-12-10T10:35:15Z</time></trkpt><trkpt lat="51.9320546184" lon="-1.8807143345"><ele>187.11</ele><time>2014-12-10T10:35:17Z</time></trkpt><trkpt lat="51.9320984557" lon="-1.8808334414"><ele>186.63</ele><time>2014-12-10T10:35:25Z</time></trkpt><trkpt lat="51.9321146328" lon="-1.8809146620"><ele>187.11</ele><time>2014-12-10T10:35:29Z</time></trkpt><trkpt lat="51.9321865495" lon="-1.8811456673"><ele>186.15</ele><time>2014-12-10T10:35:43Z</time></trkpt><trkpt lat="51.9321971107" lon="-1.8811741658"><ele>186.63</ele><time>2014-12-10T10:35:45Z</time></trkpt><trkpt lat="51.9322849531" lon="-1.8814035784"><ele>185.67</ele><time>2014-12-10T10:36:00Z</time></trkpt><trkpt lat="51.9323946722" lon="-1.8816172332"><ele>184.71</ele><time>2014-12-10T10:36:17Z</time></trkpt><trkpt lat="51.9325159583" lon="-1.8818224221"><ele>184.71</ele><time>2014-12-10T10:36:32Z</time></trkpt><trkpt lat="51.9326136913" lon="-1.8819769844"><ele>184.23</ele><time>2014-12-10T10:36:43Z</time></trkpt><trkpt lat="51.9327607937" lon="-1.8820297066"><ele>184.23</ele><time>2014-12-10T10:37:00Z</time></trkpt><trkpt lat="51.9329154398" lon="-1.8819824327"><ele>183.75</ele><time>2014-12-10T10:37:18Z</time></trkpt><trkpt lat="51.9331325311" lon="-1.8819541857"><ele>184.23</ele><time>2014-12-10T10:37:38Z</time></trkpt><trkpt lat="51.9332456868" lon="-1.8819598854"><ele>184.23</ele><time>2014-12-10T10:37:55Z</time></trkpt><trkpt lat="51.9333162624" lon="-1.8819810916"><ele>184.71</ele><time>2014-12-10T10:38:22Z</time></trkpt><trkpt lat="51.9333824795" lon="-1.8819893897"><ele>186.15</ele><time>2014-12-10T10:38:40Z</time></trkpt><trkpt lat="51.9335739221" lon="-1.8820750527"><ele>187.11</ele><time>2014-12-10T10:39:00Z</time></trkpt><trkpt lat="51.9337048475" lon="-1.8821494002"><ele>188.08</ele><time>2014-12-10T10:39:21Z</time></trkpt><trkpt lat="51.9339362718" lon="-1.8821502384"><ele>189.52</ele><time>2014-12-10T10:39:39Z</time></trkpt><trkpt lat="51.9340749923" lon="-1.8821795750"><ele>190.00</ele><time>2014-12-10T10:39:58Z</time></trkpt><trkpt lat="51.9341736473" lon="-1.8821776472"><ele>191.92</ele><time>2014-12-10T10:40:18Z</time></trkpt><trkpt lat="51.9343105238" lon="-1.8822290283"><ele>191.92</ele><time>2014-12-10T10:40:36Z</time></trkpt><trkpt lat="51.9346046448" lon="-1.8822286092"><ele>191.44</ele><time>2014-12-10T10:40:54Z</time></trkpt><trkpt lat="51.9347463828" lon="-1.8822532520"><ele>190.96</ele><time>2014-12-10T10:41:13Z</time></trkpt><trkpt lat="51.9349787291" lon="-1.8823115900"><ele>191.92</ele><time>2014-12-10T10:41:32Z</time></trkpt><trkpt lat="51.9350767974" lon="-1.8823655695"><ele>190.96</ele><time>2014-12-10T10:41:48Z</time></trkpt><trkpt lat="51.9350866880" lon="-1.8823747057"><ele>190.96</ele><time>2014-12-10T10:42:08Z</time></trkpt><trkpt lat="51.9352062978" lon="-1.8824039586"><ele>190.96</ele><time>2014-12-10T10:42:25Z</time></trkpt><trkpt lat="51.9353365526" lon="-1.8825223111"><ele>190.48</ele><time>2014-12-10T10:42:40Z</time></trkpt><trkpt lat="51.9355518837" lon="-1.8827658892"><ele>189.52</ele><time>2014-12-10T10:43:00Z</time></trkpt><trkpt lat="51.9356486108" lon="-1.8829320185"><ele>187.59</ele><time>2014-12-10T10:43:18Z</time></trkpt><trkpt lat="51.9357588328" lon="-1.8830193579"><ele>185.67</ele><time>2014-12-10T10:43:36Z</time></trkpt><trkpt lat="51.9358347729" lon="-1.8831921928"><ele>183.27</ele><time>2014-12-10T10:43:56Z</time></trkpt><trkpt lat="51.9358890876" lon="-1.8834092002"><ele>181.83</ele><time>2014-12-10T10:44:13Z</time></trkpt><trkpt lat="51.9359201007" lon="-1.8836245313"><ele>181.35</ele><time>2014-12-10T10:44:32Z</time></trkpt><trkpt lat="51.9359592441" lon="-1.8838360906"><ele>181.83</ele><time>2014-12-10T10:44:46Z</time></trkpt><trkpt lat="51.9360528700" lon="-1.8842585385"><ele>181.35</ele><time>2014-12-10T10:45:01Z</time></trkpt><trkpt lat="51.9360501040" lon="-1.8844053056"><ele>180.87</ele><time>2014-12-10T10:45:16Z</time></trkpt><trkpt lat="51.9361314084" lon="-1.8845496420"><ele>180.87</ele><time>2014-12-10T10:45:34Z</time></trkpt><trkpt lat="51.9361950271" lon="-1.8846886139"><ele>179.90</ele><time>2014-12-10T10:45:55Z</time></trkpt><trkpt lat="51.9363411237" lon="-1.8848208804"><ele>179.42</ele><time>2014-12-10T10:46:15Z</time></trkpt><trkpt lat="51.9364848733" lon="-1.8850610219"><ele>179.42</ele><time>2014-12-10T10:46:36Z</time></trkpt><trkpt lat="51.9367608055" lon="-1.8853961304"><ele>178.94</ele><time>2014-12-10T10:46:56Z</time></trkpt><trkpt lat="51.9369031303" lon="-1.8855401315"><ele>178.94</ele><time>2014-12-10T10:47:14Z</time></trkpt><trkpt lat="51.9369302038" lon="-1.8855994754"><ele>178.94</ele><time>2014-12-10T10:47:32Z</time></trkpt><trkpt lat="51.9369799085" lon="-1.8856328353"><ele>178.94</ele><time>2014-12-10T10:47:52Z</time></trkpt><trkpt lat="51.9370545074" lon="-1.8856510241"><ele>178.46</ele><time>2014-12-10T10:48:10Z</time></trkpt><trkpt lat="51.9371339679" lon="-1.8856356852"><ele>178.94</ele><time>2014-12-10T10:48:28Z</time></trkpt><trkpt lat="51.9372125063" lon="-1.8856084440"><ele>179.42</ele><time>2014-12-10T10:48:47Z</time></trkpt><trkpt lat="51.9373347145" lon="-1.8856705539"><ele>180.38</ele><time>2014-12-10T10:49:03Z</time></trkpt><trkpt lat="51.9374688249" lon="-1.8857131340"><ele>177.98</ele><time>2014-12-10T10:49:22Z</time></trkpt><trkpt lat="51.9378682226" lon="-1.8857093621"><ele>177.98</ele><time>2014-12-10T10:49:41Z</time></trkpt><trkpt lat="51.9382611662" lon="-1.8853919394"><ele>179.90</ele><time>2014-12-10T10:50:00Z</time></trkpt><trkpt lat="51.9384043291" lon="-1.8853885867"><ele>181.35</ele><time>2014-12-10T10:50:17Z</time></trkpt><trkpt lat="51.9385664351" lon="-1.8853781931"><ele>182.79</ele><time>2014-12-10T10:50:36Z</time></trkpt><trkpt lat="51.9387455564" lon="-1.8853490241"><ele>184.71</ele><time>2014-12-10T10:50:55Z</time></trkpt><trkpt lat="51.9387707859" lon="-1.8853455037"><ele>185.67</ele><time>2014-12-10T10:51:00Z</time></trkpt><trkpt lat="51.9388867915" lon="-1.8853878323"><ele>186.15</ele><time>2014-12-10T10:51:17Z</time></trkpt><trkpt lat="51.9392182119" lon="-1.8854259700"><ele>186.15</ele><time>2014-12-10T10:51:39Z</time></trkpt><trkpt lat="51.9394755363" lon="-1.8855265528"><ele>185.19</ele><time>2014-12-10T10:51:59Z</time></trkpt><trkpt lat="51.9396699127" lon="-1.8856480904"><ele>185.19</ele><time>2014-12-10T10:52:18Z</time></trkpt><trkpt lat="51.9398300909" lon="-1.8857961986"><ele>184.71</ele><time>2014-12-10T10:52:38Z</time></trkpt><trkpt lat="51.9399347808" lon="-1.8859976158"><ele>183.75</ele><time>2014-12-10T10:52:55Z</time></trkpt><trkpt lat="51.9400351122" lon="-1.8861212488"><ele>182.31</ele><time>2014-12-10T10:53:11Z</time></trkpt><trkpt lat="51.9401361980" lon="-1.8862229213"><ele>181.35</ele><time>2014-12-10T10:53:28Z</time></trkpt><trkpt lat="51.9402276445" lon="-1.8863363285"><ele>180.87</ele><time>2014-12-10T10:53:43Z</time></trkpt><trkpt lat="51.9404039998" lon="-1.8864730373"><ele>180.87</ele><time>2014-12-10T10:54:01Z</time></trkpt><trkpt lat="51.9405567180" lon="-1.8865834270"><ele>180.87</ele><time>2014-12-10T10:54:16Z</time></trkpt><trkpt lat="51.9406992942" lon="-1.8866717722"><ele>179.90</ele><time>2014-12-10T10:54:31Z</time></trkpt><trkpt lat="51.9408599753" lon="-1.8867031205"><ele>180.87</ele><time>2014-12-10T10:54:48Z</time></trkpt><trkpt lat="51.9409572892" lon="-1.8866789807"><ele>179.42</ele><time>2014-12-10T10:55:07Z</time></trkpt><trkpt lat="51.9409565348" lon="-1.8866885360"><ele>179.42</ele><time>2014-12-10T10:55:25Z</time></trkpt><trkpt lat="51.9409811776" lon="-1.8866843451"><ele>179.42</ele><time>2014-12-10T10:55:46Z</time></trkpt><trkpt lat="51.9409821834" lon="-1.8866845127"><ele>180.87</ele><time>2014-12-10T10:56:02Z</time></trkpt><trkpt lat="51.9409814291" lon="-1.8866908830"><ele>180.87</ele><time>2014-12-10T10:56:22Z</time></trkpt><trkpt lat="51.9410447963" lon="-1.8866599537"><ele>182.31</ele><time>2014-12-10T10:56:40Z</time></trkpt><trkpt lat="51.9412466325" lon="-1.8865659926"><ele>182.31</ele><time>2014-12-10T10:56:57Z</time></trkpt><trkpt lat="51.9413296133" lon="-1.8865646515"><ele>182.31</ele><time>2014-12-10T10:57:20Z</time></trkpt><trkpt lat="51.9413400069" lon="-1.8865369074"><ele>181.83</ele><time>2014-12-10T10:57:46Z</time></trkpt><trkpt lat="51.9413648173" lon="-1.8865514919"><ele>181.83</ele><time>2014-12-10T10:58:07Z</time></trkpt><trkpt lat="51.9413763843" lon="-1.8865652382"><ele>181.35</ele><time>2014-12-10T10:58:34Z</time></trkpt><trkpt lat="51.9413639791" lon="-1.8865726981"><ele>181.83</ele><time>2014-12-10T10:59:00Z</time></trkpt><trkpt lat="51.9413627218" lon="-1.8866089918"><ele>181.83</ele><time>2014-12-10T10:59:25Z</time></trkpt><trkpt lat="51.9413627218" lon="-1.8866165355"><ele>181.83</ele><time>2014-12-10T10:59:48Z</time></trkpt><trkpt lat="51.9413597044" lon="-1.8866089918"><ele>181.83</ele><time>2014-12-10T11:00:15Z</time></trkpt><trkpt lat="51.9413616322" lon="-1.8866015319"><ele>181.83</ele><time>2014-12-10T11:00:40Z</time></trkpt><trkpt lat="51.9413645659" lon="-1.8866040464"><ele>182.31</ele><time>2014-12-10T11:01:04Z</time></trkpt><trkpt lat="51.9413633086" lon="-1.8865966704"><ele>182.31</ele><time>2014-12-10T11:01:31Z</time></trkpt><trkpt lat="51.9413523283" lon="-1.8866011966"><ele>182.31</ele><time>2014-12-10T11:01:58Z</time></trkpt><trkpt lat="51.9413270149" lon="-1.8866087403"><ele>181.83</ele><time>2014-12-10T11:02:17Z</time></trkpt><trkpt lat="51.9413206447" lon="-1.8866095785"><ele>182.31</ele><time>2014-12-10T11:02:42Z</time></trkpt><trkpt lat="51.9413216505" lon="-1.8866108358"><ele>181.83</ele><time>2014-12-10T11:03:09Z</time></trkpt><trkpt lat="51.9413150288" lon="-1.8866117578"><ele>182.31</ele><time>2014-12-10T11:03:37Z</time></trkpt><trkpt lat="51.9413105026" lon="-1.8866096623"><ele>182.79</ele><time>2014-12-10T11:04:00Z</time></trkpt><trkpt lat="51.9413089938" lon="-1.8866101652"><ele>182.31</ele><time>2014-12-10T11:04:30Z</time></trkpt><trkpt lat="51.9413080718" lon="-1.8865787331"><ele>182.31</ele><time>2014-12-10T11:04:53Z</time></trkpt><trkpt lat="51.9413093291" lon="-1.8865664117"><ele>182.31</ele><time>2014-12-10T11:05:21Z</time></trkpt><trkpt lat="51.9413210638" lon="-1.8865714408"><ele>181.83</ele><time>2014-12-10T11:05:51Z</time></trkpt><trkpt lat="51.9413285237" lon="-1.8865626398"><ele>182.31</ele><time>2014-12-10T11:06:19Z</time></trkpt><trkpt lat="51.9413287751" lon="-1.8865576107"><ele>182.31</ele><time>2014-12-10T11:06:43Z</time></trkpt><trkpt lat="51.9413270988" lon="-1.8865464628"><ele>181.83</ele><time>2014-12-10T11:07:07Z</time></trkpt><trkpt lat="51.9413394202" lon="-1.8865157850"><ele>183.27</ele><time>2014-12-10T11:07:29Z</time></trkpt><trkpt lat="51.9413405936" lon="-1.8865379971"><ele>181.35</ele><time>2014-12-10T11:07:59Z</time></trkpt><trkpt lat="51.9413524121" lon="-1.8865539227"><ele>182.79</ele><time>2014-12-10T11:08:26Z</time></trkpt><trkpt lat="51.9413487241" lon="-1.8865602091"><ele>182.31</ele><time>2014-12-10T11:08:48Z</time></trkpt><trkpt lat="51.9413409289" lon="-1.8865621369"><ele>182.31</ele><time>2014-12-10T11:09:14Z</time></trkpt><trkpt lat="51.9413457904" lon="-1.8865581136"><ele>183.27</ele><time>2014-12-10T11:09:41Z</time></trkpt><trkpt lat="51.9413546752" lon="-1.8865360692"><ele>182.79</ele><time>2014-12-10T11:10:11Z</time></trkpt><trkpt lat="51.9413479697" lon="-1.8865577783"><ele>183.75</ele><time>2014-12-10T11:10:35Z</time></trkpt><trkpt lat="51.9413435273" lon="-1.8865602091"><ele>183.27</ele><time>2014-12-10T11:11:00Z</time></trkpt><trkpt lat="51.9413465448" lon="-1.8865617178"><ele>183.27</ele><time>2014-12-10T11:11:22Z</time></trkpt><trkpt lat="51.9413402583" lon="-1.8865700159"><ele>183.27</ele><time>2014-12-10T11:11:46Z</time></trkpt><trkpt lat="51.9413354807" lon="-1.8865651544"><ele>183.75</ele><time>2014-12-10T11:12:13Z</time></trkpt><trkpt lat="51.9413368218" lon="-1.8865724467"><ele>183.27</ele><time>2014-12-10T11:12:39Z</time></trkpt><trkpt lat="51.9415347185" lon="-1.8863327242"><ele>182.79</ele><time>2014-12-10T11:12:58Z</time></trkpt><trkpt lat="51.9417034462" lon="-1.8861691095"><ele>182.79</ele><time>2014-12-10T11:13:14Z</time></trkpt><trkpt lat="51.9418077171" lon="-1.8861084245"><ele>182.79</ele><time>2014-12-10T11:13:34Z</time></trkpt><trkpt lat="51.9418561645" lon="-1.8861014675"><ele>182.79</ele><time>2014-12-10T11:13:54Z</time></trkpt><trkpt lat="51.9418976549" lon="-1.8861204106"><ele>182.79</ele><time>2014-12-10T11:14:10Z</time></trkpt><trkpt lat="51.9418155961" lon="-1.8859967776"><ele>182.31</ele><time>2014-12-10T11:14:22Z</time></trkpt><trkpt lat="51.9416232314" lon="-1.8857894931"><ele>182.31</ele><time>2014-12-10T11:14:41Z</time></trkpt><trkpt lat="51.9414618798" lon="-1.8857432250"><ele>182.79</ele><time>2014-12-10T11:14:56Z</time></trkpt><trkpt lat="51.9413325470" lon="-1.8856533710"><ele>184.23</ele><time>2014-12-10T11:15:09Z</time></trkpt><trkpt lat="51.9412253425" lon="-1.8854898401"><ele>186.15</ele><time>2014-12-10T11:15:27Z</time></trkpt><trkpt lat="51.9412241690" lon="-1.8853421509"><ele>187.59</ele><time>2014-12-10T11:15:44Z</time></trkpt><trkpt lat="51.9412392564" lon="-1.8851749320"><ele>190.96</ele><time>2014-12-10T11:16:01Z</time></trkpt><trkpt lat="51.9412299525" lon="-1.8849951401"><ele>191.92</ele><time>2014-12-10T11:16:17Z</time></trkpt><trkpt lat="51.9412366580" lon="-1.8849039450"><ele>193.36</ele><time>2014-12-10T11:16:32Z</time></trkpt><trkpt lat="51.9412384182" lon="-1.8847342953"><ele>195.28</ele><time>2014-12-10T11:16:47Z</time></trkpt><trkpt lat="51.9412258454" lon="-1.8845648970"><ele>197.69</ele><time>2014-12-10T11:17:06Z</time></trkpt><trkpt lat="51.9411858637" lon="-1.8844508193"><ele>199.61</ele><time>2014-12-10T11:17:24Z</time></trkpt><trkpt lat="51.9411443733" lon="-1.8841706961"><ele>200.57</ele><time>2014-12-10T11:17:40Z</time></trkpt><trkpt lat="51.9411281124" lon="-1.8838451430"><ele>202.01</ele><time>2014-12-10T11:17:54Z</time></trkpt><trkpt lat="51.9411157072" lon="-1.8837099429"><ele>202.98</ele><time>2014-12-10T11:18:05Z</time></trkpt><trkpt lat="51.9411035534" lon="-1.8836083543"><ele>203.46</ele><time>2014-12-10T11:18:12Z</time></trkpt><trkpt lat="51.9410664216" lon="-1.8832867406"><ele>205.38</ele><time>2014-12-10T11:18:29Z</time></trkpt><trkpt lat="51.9410530105" lon="-1.8831549771"><ele>206.34</ele><time>2014-12-10T11:18:35Z</time></trkpt><trkpt lat="51.9410501607" lon="-1.8830705713"><ele>207.30</ele><time>2014-12-10T11:18:40Z</time></trkpt><trkpt lat="51.9409783278" lon="-1.8828020990"><ele>209.70</ele><time>2014-12-10T11:18:57Z</time></trkpt><trkpt lat="51.9409421179" lon="-1.8826922122"><ele>210.19</ele><time>2014-12-10T11:19:11Z</time></trkpt><trkpt lat="51.9409358315" lon="-1.8826582655"><ele>211.15</ele><time>2014-12-10T11:19:28Z</time></trkpt><trkpt lat="51.9408821873" lon="-1.8826123327"><ele>210.67</ele><time>2014-12-10T11:19:41Z</time></trkpt><trkpt lat="51.9408595562" lon="-1.8826212175"><ele>210.19</ele><time>2014-12-10T11:19:57Z</time></trkpt><trkpt lat="51.9408614002" lon="-1.8826200441"><ele>211.63</ele><time>2014-12-10T11:20:00Z</time></trkpt><trkpt lat="51.9408622384" lon="-1.8826208822"><ele>210.19</ele><time>2014-12-10T11:20:19Z</time></trkpt><trkpt lat="51.9408624060" lon="-1.8826205470"><ele>210.19</ele><time>2014-12-10T11:20:45Z</time></trkpt><trkpt lat="51.9408927485" lon="-1.8825311121"><ele>209.70</ele><time>2014-12-10T11:21:10Z</time></trkpt><trkpt lat="51.9409023039" lon="-1.8823934812"><ele>211.15</ele><time>2014-12-10T11:21:26Z</time></trkpt><trkpt lat="51.9408557005" lon="-1.8821504898"><ele>213.07</ele><time>2014-12-10T11:21:45Z</time></trkpt><trkpt lat="51.9408397749" lon="-1.8819651660"><ele>214.51</ele><time>2014-12-10T11:22:01Z</time></trkpt><trkpt lat="51.9408048224" lon="-1.8817180675"><ele>215.47</ele><time>2014-12-10T11:22:19Z</time></trkpt><trkpt lat="51.9407599792" lon="-1.8814395368"><ele>217.88</ele><time>2014-12-10T11:22:35Z</time></trkpt><trkpt lat="51.9407208357" lon="-1.8812222779"><ele>218.36</ele><time>2014-12-10T11:22:50Z</time></trkpt><trkpt lat="51.9406805187" lon="-1.8809983134"><ele>219.80</ele><time>2014-12-10T11:23:06Z</time></trkpt><trkpt lat="51.9406294730" lon="-1.8807468563"><ele>221.24</ele><time>2014-12-10T11:23:22Z</time></trkpt><trkpt lat="51.9405907486" lon="-1.8805203773"><ele>221.24</ele><time>2014-12-10T11:23:38Z</time></trkpt><trkpt lat="51.9405616634" lon="-1.8803384900"><ele>221.24</ele><time>2014-12-10T11:23:50Z</time></trkpt><trkpt lat="51.9405532815" lon="-1.8802950718"><ele>221.72</ele><time>2014-12-10T11:23:53Z</time></trkpt><trkpt lat="51.9405135512" lon="-1.8800601270"><ele>221.72</ele><time>2014-12-10T11:24:08Z</time></trkpt><trkpt lat="51.9404761679" lon="-1.8798468914"><ele>222.20</ele><time>2014-12-10T11:24:21Z</time></trkpt><trkpt lat="51.9404562190" lon="-1.8796761520"><ele>222.68</ele><time>2014-12-10T11:24:32Z</time></trkpt><trkpt lat="51.9404403772" lon="-1.8795180693"><ele>222.68</ele><time>2014-12-10T11:24:42Z</time></trkpt><trkpt lat="51.9404266309" lon="-1.8792915903"><ele>221.72</ele><time>2014-12-10T11:24:57Z</time></trkpt><trkpt lat="51.9404257927" lon="-1.8792734854"><ele>222.20</ele><time>2014-12-10T11:24:58Z</time></trkpt><trkpt lat="51.9404268824" lon="-1.8790169992"><ele>221.72</ele><time>2014-12-10T11:25:13Z</time></trkpt><trkpt lat="51.9404146448" lon="-1.8788706511"><ele>222.20</ele><time>2014-12-10T11:25:21Z</time></trkpt><trkpt lat="51.9404185005" lon="-1.8787899334"><ele>221.72</ele><time>2014-12-10T11:25:25Z</time></trkpt><trkpt lat="51.9404081907" lon="-1.8785966467"><ele>222.20</ele><time>2014-12-10T11:25:34Z</time></trkpt><trkpt lat="51.9404033292" lon="-1.8783583492"><ele>222.20</ele><time>2014-12-10T11:25:47Z</time></trkpt><trkpt lat="51.9403971266" lon="-1.8783374783"><ele>223.16</ele><time>2014-12-10T11:26:02Z</time></trkpt><trkpt lat="51.9403946120" lon="-1.8783342093"><ele>222.68</ele><time>2014-12-10T11:26:20Z</time></trkpt><trkpt lat="51.9403974619" lon="-1.8783095665"><ele>223.16</ele><time>2014-12-10T11:26:23Z</time></trkpt><trkpt lat="51.9403773453" lon="-1.8781458680"><ele>223.16</ele><time>2014-12-10T11:26:32Z</time></trkpt><trkpt lat="51.9403812848" lon="-1.8780638929"><ele>223.64</ele><time>2014-12-10T11:26:36Z</time></trkpt><trkpt lat="51.9403581508" lon="-1.8779942393"><ele>223.64</ele><time>2014-12-10T11:26:40Z</time></trkpt><trkpt lat="51.9403575640" lon="-1.8779106718"><ele>223.64</ele><time>2014-12-10T11:26:45Z</time></trkpt><trkpt lat="51.9403604977" lon="-1.8778210692"><ele>223.64</ele><time>2014-12-10T11:26:50Z</time></trkpt><trkpt lat="51.9403417222" lon="-1.8776821811"><ele>224.12</ele><time>2014-12-10T11:26:56Z</time></trkpt><trkpt lat="51.9403325021" lon="-1.8774834462"><ele>224.12</ele><time>2014-12-10T11:27:05Z</time></trkpt><trkpt lat="51.9403302390" lon="-1.8774420395"><ele>224.12</ele><time>2014-12-10T11:27:07Z</time></trkpt><trkpt lat="51.9403448235" lon="-1.8773888145"><ele>224.12</ele><time>2014-12-10T11:27:10Z</time></trkpt><trkpt lat="51.9403226953" lon="-1.8771179952"><ele>223.16</ele><time>2014-12-10T11:27:24Z</time></trkpt><trkpt lat="51.9403090328" lon="-1.8768153246"><ele>222.68</ele><time>2014-12-10T11:27:38Z</time></trkpt><trkpt lat="51.9403055962" lon="-1.8765920307"><ele>223.64</ele><time>2014-12-10T11:27:50Z</time></trkpt><trkpt lat="51.9402935263" lon="-1.8763237260"><ele>223.16</ele><time>2014-12-10T11:28:01Z</time></trkpt><trkpt lat="51.9402596634" lon="-1.8760825787"><ele>223.64</ele><time>2014-12-10T11:28:14Z</time></trkpt><trkpt lat="51.9402530417" lon="-1.8760167807"><ele>224.12</ele><time>2014-12-10T11:28:17Z</time></trkpt><trkpt lat="51.9402548857" lon="-1.8759773020"><ele>224.12</ele><time>2014-12-10T11:28:19Z</time></trkpt><trkpt lat="51.9402385410" lon="-1.8757211510"><ele>225.09</ele><time>2014-12-10T11:28:33Z</time></trkpt><trkpt lat="51.9402392954" lon="-1.8756860308"><ele>224.61</ele><time>2014-12-10T11:28:35Z</time></trkpt><trkpt lat="51.9402308296" lon="-1.8756043911"><ele>225.09</ele><time>2014-12-10T11:28:40Z</time></trkpt><trkpt lat="51.9402320869" lon="-1.8753361702"><ele>225.57</ele><time>2014-12-10T11:28:55Z</time></trkpt><trkpt lat="51.9402166642" lon="-1.8751715496"><ele>226.53</ele><time>2014-12-10T11:29:06Z</time></trkpt><trkpt lat="51.9402128085" lon="-1.8750640098"><ele>226.53</ele><time>2014-12-10T11:29:14Z</time></trkpt><trkpt lat="51.9402047619" lon="-1.8750252854"><ele>227.49</ele><time>2014-12-10T11:29:17Z</time></trkpt><trkpt lat="51.9402069412" lon="-1.8749765027"><ele>227.49</ele><time>2014-12-10T11:29:20Z</time></trkpt><trkpt lat="51.9401922729" lon="-1.8748392910"><ele>228.45</ele><time>2014-12-10T11:29:30Z</time></trkpt><trkpt lat="51.9401876628" lon="-1.8746817112"><ele>227.97</ele><time>2014-12-10T11:29:39Z</time></trkpt><trkpt lat="51.9401757605" lon="-1.8744824734"><ele>228.45</ele><time>2014-12-10T11:29:52Z</time></trkpt><trkpt lat="51.9401734974" lon="-1.8744678888"><ele>228.93</ele><time>2014-12-10T11:29:53Z</time></trkpt><trkpt lat="51.9401594996" lon="-1.8743806332"><ele>229.41</ele><time>2014-12-10T11:29:59Z</time></trkpt><trkpt lat="51.9401522074" lon="-1.8742083851"><ele>229.89</ele><time>2014-12-10T11:30:13Z</time></trkpt><trkpt lat="51.9401527103" lon="-1.8741924595"><ele>230.37</ele><time>2014-12-10T11:30:14Z</time></trkpt><trkpt lat="51.9401612598" lon="-1.8741477840"><ele>230.37</ele><time>2014-12-10T11:30:16Z</time></trkpt><trkpt lat="51.9401483517" lon="-1.8739624601"><ele>230.85</ele><time>2014-12-10T11:30:26Z</time></trkpt><trkpt lat="51.9401191827" lon="-1.8738029525"><ele>231.33</ele><time>2014-12-10T11:30:38Z</time></trkpt><trkpt lat="51.9401276484" lon="-1.8736353982"><ele>231.81</ele><time>2014-12-10T11:30:48Z</time></trkpt><trkpt lat="51.9401112199" lon="-1.8735601287"><ele>232.30</ele><time>2014-12-10T11:30:53Z</time></trkpt><trkpt lat="51.9401020836" lon="-1.8733944185"><ele>232.30</ele><time>2014-12-10T11:31:02Z</time></trkpt><trkpt lat="51.9400763512" lon="-1.8732263613"><ele>232.78</ele><time>2014-12-10T11:31:12Z</time></trkpt><trkpt lat="51.9400367886" lon="-1.8730860483"><ele>232.78</ele><time>2014-12-10T11:31:20Z</time></trkpt><trkpt lat="51.9400104694" lon="-1.8729793467"><ele>233.26</ele><time>2014-12-10T11:31:26Z</time></trkpt><trkpt lat="51.9399616029" lon="-1.8728217669"><ele>233.26</ele><time>2014-12-10T11:31:35Z</time></trkpt><trkpt lat="51.9399121497" lon="-1.8726607505"><ele>232.30</ele><time>2014-12-10T11:31:45Z</time></trkpt><trkpt lat="51.9398888480" lon="-1.8725396320"><ele>232.30</ele><time>2014-12-10T11:31:52Z</time></trkpt><trkpt lat="51.9398712460" lon="-1.8724911008"><ele>231.81</ele><time>2014-12-10T11:31:55Z</time></trkpt><trkpt lat="51.9398512132" lon="-1.8724022526"><ele>231.33</ele><time>2014-12-10T11:32:03Z</time></trkpt><trkpt lat="51.9398432504" lon="-1.8723716587"><ele>232.30</ele><time>2014-12-10T11:32:05Z</time></trkpt><trkpt lat="51.9398181885" lon="-1.8722872529"><ele>231.81</ele><time>2014-12-10T11:32:11Z</time></trkpt><trkpt lat="51.9397430867" lon="-1.8720602710"><ele>231.81</ele><time>2014-12-10T11:32:23Z</time></trkpt><trkpt lat="51.9397032727" lon="-1.8718935549"><ele>231.33</ele><time>2014-12-10T11:32:32Z</time></trkpt><trkpt lat="51.9396799710" lon="-1.8717673235"><ele>230.37</ele><time>2014-12-10T11:32:38Z</time></trkpt><trkpt lat="51.9396109879" lon="-1.8715684209"><ele>230.37</ele><time>2014-12-10T11:32:51Z</time></trkpt><trkpt lat="51.9395342097" lon="-1.8713740446"><ele>229.89</ele><time>2014-12-10T11:33:01Z</time></trkpt><trkpt lat="51.9395331200" lon="-1.8713734578"><ele>229.89</ele><time>2014-12-10T11:33:02Z</time></trkpt><trkpt lat="51.9395195413" lon="-1.8713167962"><ele>230.37</ele><time>2014-12-10T11:33:06Z</time></trkpt><trkpt lat="51.9395114947" lon="-1.8712694384"><ele>230.85</ele><time>2014-12-10T11:33:09Z</time></trkpt><trkpt lat="51.9394928869" lon="-1.8712294567"><ele>229.89</ele><time>2014-12-10T11:33:22Z</time></trkpt><trkpt lat="51.9394923840" lon="-1.8712183926"><ele>229.89</ele><time>2014-12-10T11:33:27Z</time></trkpt><trkpt lat="51.9394928869" lon="-1.8712085858"><ele>229.89</ele><time>2014-12-10T11:33:30Z</time></trkpt><trkpt lat="51.9394353870" lon="-1.8710452225"><ele>229.41</ele><time>2014-12-10T11:33:38Z</time></trkpt><trkpt lat="51.9393871911" lon="-1.8709488306"><ele>228.93</ele><time>2014-12-10T11:33:43Z</time></trkpt><trkpt lat="51.9392687548" lon="-1.8706546258"><ele>227.01</ele><time>2014-12-10T11:33:57Z</time></trkpt><trkpt lat="51.9392576069" lon="-1.8706153147"><ele>227.49</ele><time>2014-12-10T11:33:59Z</time></trkpt><trkpt lat="51.9391867798" lon="-1.8703939486"><ele>225.57</ele><time>2014-12-10T11:34:08Z</time></trkpt><trkpt lat="51.9391623884" lon="-1.8703227025"><ele>225.57</ele><time>2014-12-10T11:34:12Z</time></trkpt><trkpt lat="51.9391184673" lon="-1.8700913619"><ele>223.64</ele><time>2014-12-10T11:34:25Z</time></trkpt><trkpt lat="51.9390817545" lon="-1.8700560741"><ele>224.12</ele><time>2014-12-10T11:34:34Z</time></trkpt><trkpt lat="51.9390866999" lon="-1.8700415734"><ele>223.16</ele><time>2014-12-10T11:34:46Z</time></trkpt><trkpt lat="51.9390773121" lon="-1.8700038549"><ele>223.64</ele><time>2014-12-10T11:35:03Z</time></trkpt><trkpt lat="51.9390664157" lon="-1.8699544854"><ele>223.64</ele><time>2014-12-10T11:35:06Z</time></trkpt><trkpt lat="51.9390385039" lon="-1.8698662240"><ele>222.68</ele><time>2014-12-10T11:35:11Z</time></trkpt><trkpt lat="51.9390162919" lon="-1.8697552476"><ele>221.72</ele><time>2014-12-10T11:35:16Z</time></trkpt><trkpt lat="51.9389863685" lon="-1.8695982546"><ele>221.72</ele><time>2014-12-10T11:35:21Z</time></trkpt><trkpt lat="51.9389696047" lon="-1.8694395013"><ele>221.24</ele><time>2014-12-10T11:35:26Z</time></trkpt><trkpt lat="51.9389079977" lon="-1.8691493198"><ele>220.76</ele><time>2014-12-10T11:35:37Z</time></trkpt><trkpt lat="51.9388649985" lon="-1.8688816018"><ele>219.80</ele><time>2014-12-10T11:35:48Z</time></trkpt><trkpt lat="51.9388638251" lon="-1.8688763212"><ele>219.80</ele><time>2014-12-10T11:35:59Z</time></trkpt><trkpt lat="51.9388576224" lon="-1.8688979466"><ele>220.28</ele><time>2014-12-10T11:36:12Z</time></trkpt><trkpt lat="51.9388296269" lon="-1.8689799216"><ele>219.80</ele><time>2014-12-10T11:36:25Z</time></trkpt><trkpt lat="51.9388321415" lon="-1.8689702824"><ele>219.80</ele><time>2014-12-10T11:36:31Z</time></trkpt><trkpt lat="51.9388361648" lon="-1.8689090945"><ele>219.80</ele><time>2014-12-10T11:36:35Z</time></trkpt><trkpt lat="51.9388017152" lon="-1.8686708808"><ele>219.32</ele><time>2014-12-10T11:36:47Z</time></trkpt><trkpt lat="51.9387843646" lon="-1.8686222658"><ele>219.32</ele><time>2014-12-10T11:37:02Z</time></trkpt><trkpt lat="51.9387733005" lon="-1.8684474193"><ele>219.32</ele><time>2014-12-10T11:37:13Z</time></trkpt><trkpt lat="51.9387706183" lon="-1.8683999777"><ele>219.32</ele><time>2014-12-10T11:37:15Z</time></trkpt><trkpt lat="51.9387352467" lon="-1.8681615125"><ele>218.84</ele><time>2014-12-10T11:37:25Z</time></trkpt><trkpt lat="51.9387147948" lon="-1.8681116402"><ele>218.36</ele><time>2014-12-10T11:37:35Z</time></trkpt><trkpt lat="51.9387031440" lon="-1.8681007437"><ele>218.84</ele><time>2014-12-10T11:37:45Z</time></trkpt><trkpt lat="51.9386925828" lon="-1.8680334371"><ele>218.84</ele><time>2014-12-10T11:37:57Z</time></trkpt><trkpt lat="51.9386926666" lon="-1.8679888453"><ele>219.32</ele><time>2014-12-10T11:38:00Z</time></trkpt><trkpt lat="51.9386870507" lon="-1.8678492028"><ele>218.84</ele><time>2014-12-10T11:38:07Z</time></trkpt><trkpt lat="51.9386808481" lon="-1.8676666450"><ele>219.32</ele><time>2014-12-10T11:38:17Z</time></trkpt><trkpt lat="51.9386783335" lon="-1.8676233105"><ele>219.32</ele><time>2014-12-10T11:38:19Z</time></trkpt><trkpt lat="51.9386727177" lon="-1.8674179539"><ele>217.88</ele><time>2014-12-10T11:38:31Z</time></trkpt><trkpt lat="51.9386676885" lon="-1.8673921376"><ele>217.88</ele><time>2014-12-10T11:38:33Z</time></trkpt><trkpt lat="51.9386688620" lon="-1.8671734538"><ele>216.91</ele><time>2014-12-10T11:38:47Z</time></trkpt><trkpt lat="51.9386608992" lon="-1.8670794927"><ele>216.43</ele><time>2014-12-10T11:38:52Z</time></trkpt><trkpt lat="51.9386499189" lon="-1.8669684324"><ele>215.95</ele><time>2014-12-10T11:38:58Z</time></trkpt><trkpt lat="51.9386257790" lon="-1.8668734655"><ele>214.99</ele><time>2014-12-10T11:39:04Z</time></trkpt><trkpt lat="51.9386028964" lon="-1.8667054083"><ele>214.03</ele><time>2014-12-10T11:39:16Z</time></trkpt><trkpt lat="51.9385375176" lon="-1.8665185757"><ele>214.03</ele><time>2014-12-10T11:39:29Z</time></trkpt><trkpt lat="51.9384264573" lon="-1.8663384486"><ele>213.07</ele><time>2014-12-10T11:39:43Z</time></trkpt><trkpt lat="51.9383159000" lon="-1.8661642727"><ele>213.07</ele><time>2014-12-10T11:39:57Z</time></trkpt><trkpt lat="51.9382850546" lon="-1.8661107123"><ele>213.07</ele><time>2014-12-10T11:40:02Z</time></trkpt><trkpt lat="51.9382716436" lon="-1.8660822976"><ele>212.59</ele><time>2014-12-10T11:40:04Z</time></trkpt><trkpt lat="51.9382281415" lon="-1.8660045136"><ele>213.07</ele><time>2014-12-10T11:40:10Z</time></trkpt><trkpt lat="51.9382101204" lon="-1.8659634423"><ele>212.59</ele><time>2014-12-10T11:40:13Z</time></trkpt><trkpt lat="51.9381993916" lon="-1.8659367878"><ele>212.11</ele><time>2014-12-10T11:40:15Z</time></trkpt><trkpt lat="51.9381488487" lon="-1.8658296671"><ele>211.63</ele><time>2014-12-10T11:40:25Z</time></trkpt><trkpt lat="51.9381023291" lon="-1.8657583371"><ele>211.63</ele><time>2014-12-10T11:40:31Z</time></trkpt><trkpt lat="51.9380549714" lon="-1.8656893540"><ele>211.15</ele><time>2014-12-10T11:40:38Z</time></trkpt><trkpt lat="51.9379791990" lon="-1.8655468617"><ele>209.70</ele><time>2014-12-10T11:40:51Z</time></trkpt><trkpt lat="51.9379536342" lon="-1.8655010965"><ele>211.15</ele><time>2014-12-10T11:40:58Z</time></trkpt><trkpt lat="51.9378875848" lon="-1.8653996754"><ele>210.67</ele><time>2014-12-10T11:41:07Z</time></trkpt><trkpt lat="51.9378369581" lon="-1.8653643038"><ele>210.19</ele><time>2014-12-10T11:41:18Z</time></trkpt><trkpt lat="51.9378351979" lon="-1.8653426785"><ele>210.67</ele><time>2014-12-10T11:41:35Z</time></trkpt><trkpt lat="51.9378448371" lon="-1.8653310277"><ele>210.19</ele><time>2014-12-10T11:41:48Z</time></trkpt><trkpt lat="51.9378483575" lon="-1.8653228972"><ele>210.19</ele><time>2014-12-10T11:42:10Z</time></trkpt><trkpt lat="51.9378491957" lon="-1.8653303571"><ele>210.19</ele><time>2014-12-10T11:42:26Z</time></trkpt><trkpt lat="51.9378519617" lon="-1.8653336260"><ele>211.15</ele><time>2014-12-10T11:42:53Z</time></trkpt><trkpt lat="51.9378561527" lon="-1.8653328717"><ele>210.19</ele><time>2014-12-10T11:43:16Z</time></trkpt><trkpt lat="51.9378576614" lon="-1.8653488811"><ele>209.70</ele><time>2014-12-10T11:43:31Z</time></trkpt><trkpt lat="51.9378586672" lon="-1.8653781340"><ele>211.15</ele><time>2014-12-10T11:43:33Z</time></trkpt><trkpt lat="51.9378451724" lon="-1.8654583488"><ele>210.19</ele><time>2014-12-10T11:43:39Z</time></trkpt><trkpt lat="51.9377936237" lon="-1.8656705786"><ele>211.63</ele><time>2014-12-10T11:43:54Z</time></trkpt><trkpt lat="51.9377313461" lon="-1.8658933695"><ele>212.59</ele><time>2014-12-10T11:44:09Z</time></trkpt><trkpt lat="51.9377310947" lon="-1.8659035116"><ele>211.63</ele><time>2014-12-10T11:44:10Z</time></trkpt><trkpt lat="51.9377107266" lon="-1.8659379613"><ele>213.55</ele><time>2014-12-10T11:44:13Z</time></trkpt><trkpt lat="51.9376574177" lon="-1.8662115466"><ele>214.03</ele><time>2014-12-10T11:44:30Z</time></trkpt><trkpt lat="51.9376160949" lon="-1.8664377742"><ele>214.99</ele><time>2014-12-10T11:44:46Z</time></trkpt><trkpt lat="51.9375730120" lon="-1.8666519318"><ele>215.47</ele><time>2014-12-10T11:45:00Z</time></trkpt><trkpt lat="51.9375267439" lon="-1.8668926600"><ele>216.43</ele><time>2014-12-10T11:45:15Z</time></trkpt><trkpt lat="51.9374901149" lon="-1.8670883775"><ele>216.91</ele><time>2014-12-10T11:45:27Z</time></trkpt><trkpt lat="51.9374527317" lon="-1.8672823347"><ele>216.91</ele><time>2014-12-10T11:45:39Z</time></trkpt><trkpt lat="51.9373959024" lon="-1.8675344624"><ele>217.40</ele><time>2014-12-10T11:45:53Z</time></trkpt><trkpt lat="51.9373898674" lon="-1.8675643858"><ele>218.36</ele><time>2014-12-10T11:45:55Z</time></trkpt><trkpt lat="51.9373222254" lon="-1.8678208720"><ele>217.40</ele><time>2014-12-10T11:46:10Z</time></trkpt><trkpt lat="51.9372331258" lon="-1.8680957146"><ele>217.88</ele><time>2014-12-10T11:46:25Z</time></trkpt><trkpt lat="51.9371806551" lon="-1.8682807032"><ele>218.36</ele><time>2014-12-10T11:46:38Z</time></trkpt><trkpt lat="51.9371745363" lon="-1.8683030829"><ele>218.36</ele><time>2014-12-10T11:46:40Z</time></trkpt><trkpt lat="51.9371328782" lon="-1.8683998939"><ele>218.84</ele><time>2014-12-10T11:46:48Z</time></trkpt><trkpt lat="51.9370500650" lon="-1.8686179910"><ele>218.84</ele><time>2014-12-10T11:47:03Z</time></trkpt><trkpt lat="51.9370213151" lon="-1.8686837051"><ele>218.84</ele><time>2014-12-10T11:47:08Z</time></trkpt><trkpt lat="51.9369442016" lon="-1.8688826077"><ele>217.88</ele><time>2014-12-10T11:47:22Z</time></trkpt><trkpt lat="51.9368279446" lon="-1.8691594619"><ele>216.91</ele><time>2014-12-10T11:47:40Z</time></trkpt><trkpt lat="51.9367366657" lon="-1.8693839293"><ele>216.91</ele><time>2014-12-10T11:47:57Z</time></trkpt><trkpt lat="51.9366190676" lon="-1.8695984222"><ele>215.47</ele><time>2014-12-10T11:48:13Z</time></trkpt><trkpt lat="51.9365000445" lon="-1.8697819859"><ele>213.55</ele><time>2014-12-10T11:48:29Z</time></trkpt><trkpt lat="51.9363941811" lon="-1.8699620292"><ele>212.11</ele><time>2014-12-10T11:48:46Z</time></trkpt><trkpt lat="51.9362766668" lon="-1.8701247219"><ele>210.67</ele><time>2014-12-10T11:49:00Z</time></trkpt><trkpt lat="51.9361391198" lon="-1.8703121413"><ele>208.74</ele><time>2014-12-10T11:49:15Z</time></trkpt><trkpt lat="51.9360406324" lon="-1.8704324216"><ele>208.26</ele><time>2014-12-10T11:49:26Z</time></trkpt><trkpt lat="51.9360047579" lon="-1.8704703916"><ele>207.78</ele><time>2014-12-10T11:49:30Z</time></trkpt><trkpt lat="51.9358703960" lon="-1.8706171587"><ele>206.34</ele><time>2014-12-10T11:49:44Z</time></trkpt><trkpt lat="51.9358177576" lon="-1.8706842978"><ele>206.34</ele><time>2014-12-10T11:49:50Z</time></trkpt><trkpt lat="51.9357544743" lon="-1.8707496766"><ele>206.34</ele><time>2014-12-10T11:49:57Z</time></trkpt><trkpt lat="51.9356149156" lon="-1.8708893191"><ele>204.90</ele><time>2014-12-10T11:50:14Z</time></trkpt><trkpt lat="51.9354637899" lon="-1.8710451387"><ele>203.46</ele><time>2014-12-10T11:50:30Z</time></trkpt><trkpt lat="51.9353599381" lon="-1.8711460568"><ele>202.01</ele><time>2014-12-10T11:50:40Z</time></trkpt><trkpt lat="51.9352681562" lon="-1.8712597154"><ele>200.57</ele><time>2014-12-10T11:50:55Z</time></trkpt><trkpt lat="51.9352706708" lon="-1.8712761439"><ele>200.57</ele><time>2014-12-10T11:51:27Z</time></trkpt><trkpt lat="51.9352590200" lon="-1.8712898064"><ele>201.05</ele><time>2014-12-10T11:51:42Z</time></trkpt><trkpt lat="51.9352549128" lon="-1.8712966796"><ele>201.53</ele><time>2014-12-10T11:52:01Z</time></trkpt><trkpt lat="51.9352037832" lon="-1.8713372480"><ele>200.57</ele><time>2014-12-10T11:52:06Z</time></trkpt><trkpt lat="51.9351881091" lon="-1.8713750504"><ele>201.05</ele><time>2014-12-10T11:52:08Z</time></trkpt><trkpt lat="51.9350818265" lon="-1.8714843504"><ele>199.61</ele><time>2014-12-10T11:52:19Z</time></trkpt><trkpt lat="51.9349264260" lon="-1.8716446962"><ele>199.61</ele><time>2014-12-10T11:52:36Z</time></trkpt><trkpt lat="51.9347567763" lon="-1.8717940617"><ele>197.69</ele><time>2014-12-10T11:52:51Z</time></trkpt><trkpt lat="51.9345534313" lon="-1.8719946407"><ele>194.32</ele><time>2014-12-10T11:53:10Z</time></trkpt><trkpt lat="51.9343598094" lon="-1.8721853290"><ele>194.32</ele><time>2014-12-10T11:53:28Z</time></trkpt><trkpt lat="51.9341676123" lon="-1.8723636959"><ele>194.32</ele><time>2014-12-10T11:53:45Z</time></trkpt><trkpt lat="51.9339700509" lon="-1.8725358602"><ele>191.92</ele><time>2014-12-10T11:54:04Z</time></trkpt><trkpt lat="51.9337760098" lon="-1.8727423064"><ele>190.96</ele><time>2014-12-10T11:54:22Z</time></trkpt><trkpt lat="51.9336175080" lon="-1.8728860561"><ele>189.04</ele><time>2014-12-10T11:54:38Z</time></trkpt><trkpt lat="51.9333999977" lon="-1.8731134571"><ele>187.11</ele><time>2014-12-10T11:54:57Z</time></trkpt><trkpt lat="51.9333465211" lon="-1.8731717952"><ele>186.63</ele><time>2014-12-10T11:55:02Z</time></trkpt><trkpt lat="51.9331666455" lon="-1.8733591307"><ele>184.23</ele><time>2014-12-10T11:55:19Z</time></trkpt><trkpt lat="51.9329822436" lon="-1.8735726178"><ele>183.27</ele><time>2014-12-10T11:55:37Z</time></trkpt><trkpt lat="51.9329630490" lon="-1.8735980149"><ele>182.79</ele><time>2014-12-10T11:55:56Z</time></trkpt><trkpt lat="51.9328465406" lon="-1.8737246655"><ele>182.31</ele><time>2014-12-10T11:56:10Z</time></trkpt><trkpt lat="51.9327293616" lon="-1.8737524934"><ele>181.83</ele><time>2014-12-10T11:56:25Z</time></trkpt><trkpt lat="51.9327161182" lon="-1.8737359811"><ele>181.83</ele><time>2014-12-10T11:56:50Z</time></trkpt><trkpt lat="51.9326933194" lon="-1.8737081531"><ele>182.31</ele><time>2014-12-10T11:56:53Z</time></trkpt><trkpt lat="51.9326461293" lon="-1.8735087477"><ele>182.79</ele><time>2014-12-10T11:57:08Z</time></trkpt><trkpt lat="51.9325946644" lon="-1.8732525967"><ele>182.31</ele><time>2014-12-10T11:57:25Z</time></trkpt><trkpt lat="51.9325367454" lon="-1.8730251119"><ele>181.83</ele><time>2014-12-10T11:57:41Z</time></trkpt><trkpt lat="51.9324772339" lon="-1.8728074338"><ele>182.31</ele><time>2014-12-10T11:57:55Z</time></trkpt><trkpt lat="51.9323958457" lon="-1.8725655321"><ele>182.31</ele><time>2014-12-10T11:58:11Z</time></trkpt><trkpt lat="51.9323111046" lon="-1.8723149970"><ele>182.31</ele><time>2014-12-10T11:58:27Z</time></trkpt><trkpt lat="51.9322122820" lon="-1.8720419146"><ele>182.79</ele><time>2014-12-10T11:58:45Z</time></trkpt><trkpt lat="51.9321432151" lon="-1.8718368094"><ele>183.27</ele><time>2014-12-10T11:59:00Z</time></trkpt><trkpt lat="51.9320699573" lon="-1.8716214783"><ele>183.75</ele><time>2014-12-10T11:59:15Z</time></trkpt><trkpt lat="51.9319937658" lon="-1.8714118470"><ele>184.71</ele><time>2014-12-10T11:59:30Z</time></trkpt><trkpt lat="51.9319192506" lon="-1.8712017126"><ele>184.23</ele><time>2014-12-10T11:59:46Z</time></trkpt><trkpt lat="51.9318423048" lon="-1.8709743954"><ele>185.67</ele><time>2014-12-10T12:00:03Z</time></trkpt><trkpt lat="51.9317698851" lon="-1.8707349245"><ele>185.67</ele><time>2014-12-10T12:00:19Z</time></trkpt><trkpt lat="51.9316922687" lon="-1.8704903405"><ele>186.63</ele><time>2014-12-10T12:00:35Z</time></trkpt><trkpt lat="51.9316149876" lon="-1.8702949584"><ele>186.15</ele><time>2014-12-10T12:00:50Z</time></trkpt><trkpt lat="51.9315304980" lon="-1.8700920325"><ele>186.15</ele><time>2014-12-10T12:01:04Z</time></trkpt><trkpt lat="51.9314348605" lon="-1.8698466104"><ele>186.63</ele><time>2014-12-10T12:01:20Z</time></trkpt><trkpt lat="51.9313414861" lon="-1.8696009368"><ele>186.63</ele><time>2014-12-10T12:01:36Z</time></trkpt><trkpt lat="51.9312761072" lon="-1.8694342207"><ele>186.63</ele><time>2014-12-10T12:01:52Z</time></trkpt><trkpt lat="51.9312015921" lon="-1.8693220709"><ele>186.15</ele><time>2014-12-10T12:02:06Z</time></trkpt><trkpt lat="51.9311898574" lon="-1.8693211488"><ele>186.15</ele><time>2014-12-10T12:02:21Z</time></trkpt><trkpt lat="51.9311900251" lon="-1.8693196401"><ele>182.79</ele><time>2014-12-10T12:02:28Z</time></trkpt><trkpt lat="51.9311901927" lon="-1.8693195563"><ele>187.59</ele><time>2014-12-10T12:02:29Z</time></trkpt><trkpt lat="51.9311906118" lon="-1.8693198916"><ele>187.11</ele><time>2014-12-10T12:02:30Z</time></trkpt><trkpt lat="51.9311926235" lon="-1.8693190534"><ele>186.15</ele><time>2014-12-10T12:02:54Z</time></trkpt><trkpt lat="51.9311876781" lon="-1.8693307880"><ele>186.63</ele><time>2014-12-10T12:03:14Z</time></trkpt><trkpt lat="51.9311832357" lon="-1.8693283573"><ele>186.15</ele><time>2014-12-10T12:03:36Z</time></trkpt><trkpt lat="51.9311801344" lon="-1.8693271000"><ele>186.15</ele><time>2014-12-10T12:03:54Z</time></trkpt><trkpt lat="51.9311642926" lon="-1.8693124317"><ele>185.67</ele><time>2014-12-10T12:04:12Z</time></trkpt><trkpt lat="51.9310015161" lon="-1.8691531755"><ele>185.19</ele><time>2014-12-10T12:04:30Z</time></trkpt><trkpt lat="51.9308600295" lon="-1.8690038100"><ele>186.15</ele><time>2014-12-10T12:04:47Z</time></trkpt><trkpt lat="51.9307871070" lon="-1.8688576296"><ele>187.59</ele><time>2014-12-10T12:04:58Z</time></trkpt><trkpt lat="51.9306360651" lon="-1.8686036579"><ele>188.56</ele><time>2014-12-10T12:05:14Z</time></trkpt><trkpt lat="51.9305353146" lon="-1.8684336729"><ele>189.04</ele><time>2014-12-10T12:05:26Z</time></trkpt><trkpt lat="51.9305273518" lon="-1.8683994748"><ele>189.52</ele><time>2014-12-10T12:05:28Z</time></trkpt><trkpt lat="51.9303393457" lon="-1.8681126460"><ele>190.00</ele><time>2014-12-10T12:05:47Z</time></trkpt><trkpt lat="51.9302153774" lon="-1.8679537252"><ele>190.00</ele><time>2014-12-10T12:06:01Z</time></trkpt><trkpt lat="51.9300459791" lon="-1.8676785473"><ele>190.00</ele><time>2014-12-10T12:06:20Z</time></trkpt><trkpt lat="51.9299118686" lon="-1.8675171956"><ele>189.52</ele><time>2014-12-10T12:06:35Z</time></trkpt><trkpt lat="51.9299015589" lon="-1.8675124180"><ele>190.48</ele><time>2014-12-10T12:06:42Z</time></trkpt><trkpt lat="51.9298801012" lon="-1.8675509747"><ele>189.04</ele><time>2014-12-10T12:06:58Z</time></trkpt><trkpt lat="51.9297976233" lon="-1.8678274937"><ele>188.08</ele><time>2014-12-10T12:07:15Z</time></trkpt><trkpt lat="51.9297879003" lon="-1.8678611051"><ele>188.08</ele><time>2014-12-10T12:07:17Z</time></trkpt><trkpt lat="51.9296858925" lon="-1.8681413122"><ele>186.15</ele><time>2014-12-10T12:07:33Z</time></trkpt><trkpt lat="51.9296118803" lon="-1.8683337606"><ele>184.23</ele><time>2014-12-10T12:07:44Z</time></trkpt><trkpt lat="51.9295352697" lon="-1.8685094453"><ele>183.75</ele><time>2014-12-10T12:07:58Z</time></trkpt><trkpt lat="51.9294898398" lon="-1.8687028997"><ele>180.87</ele><time>2014-12-10T12:08:13Z</time></trkpt><trkpt lat="51.9294520374" lon="-1.8688133731"><ele>180.38</ele><time>2014-12-10T12:08:21Z</time></trkpt><trkpt lat="51.9293518737" lon="-1.8690703623"><ele>179.90</ele><time>2014-12-10T12:08:38Z</time></trkpt><trkpt lat="51.9292538054" lon="-1.8692752998"><ele>179.42</ele><time>2014-12-10T12:08:57Z</time></trkpt><trkpt lat="51.9291786198" lon="-1.8693217356"><ele>179.42</ele><time>2014-12-10T12:09:17Z</time></trkpt><trkpt lat="51.9290692359" lon="-1.8694063928"><ele>178.94</ele><time>2014-12-10T12:09:36Z</time></trkpt><trkpt lat="51.9289941341" lon="-1.8694509845"><ele>178.94</ele><time>2014-12-10T12:09:56Z</time></trkpt><trkpt lat="51.9288931321" lon="-1.8695208058"><ele>178.94</ele><time>2014-12-10T12:10:18Z</time></trkpt><trkpt lat="51.9288518932" lon="-1.8695425149"><ele>179.42</ele><time>2014-12-10T12:10:23Z</time></trkpt><trkpt lat="51.9287119992" lon="-1.8695837539"><ele>179.42</ele><time>2014-12-10T12:10:37Z</time></trkpt><trkpt lat="51.9286603667" lon="-1.8696033675"><ele>178.46</ele><time>2014-12-10T12:10:43Z</time></trkpt><trkpt lat="51.9286161941" lon="-1.8696300220"><ele>178.46</ele><time>2014-12-10T12:10:58Z</time></trkpt><trkpt lat="51.9284905493" lon="-1.8696746137"><ele>177.50</ele><time>2014-12-10T12:11:11Z</time></trkpt><trkpt lat="51.9283413514" lon="-1.8697639648"><ele>177.98</ele><time>2014-12-10T12:11:27Z</time></trkpt><trkpt lat="51.9282276090" lon="-1.8698140886"><ele>177.98</ele><time>2014-12-10T12:11:38Z</time></trkpt><trkpt lat="51.9281970989" lon="-1.8698320258"><ele>178.46</ele><time>2014-12-10T12:11:41Z</time></trkpt><trkpt lat="51.9280543551" lon="-1.8699145876"><ele>177.50</ele><time>2014-12-10T12:11:56Z</time></trkpt><trkpt lat="51.9279319793" lon="-1.8699746858"><ele>177.50</ele><time>2014-12-10T12:12:13Z</time></trkpt><trkpt lat="51.9278252777" lon="-1.8700494524"><ele>176.54</ele><time>2014-12-10T12:12:27Z</time></trkpt><trkpt lat="51.9277926721" lon="-1.8700759392"><ele>176.54</ele><time>2014-12-10T12:12:30Z</time></trkpt><trkpt lat="51.9276298955" lon="-1.8700715806"><ele>176.06</ele><time>2014-12-10T12:12:45Z</time></trkpt><trkpt lat="51.9275722280" lon="-1.8700273242"><ele>176.06</ele><time>2014-12-10T12:13:01Z</time></trkpt><trkpt lat="51.9275247864" lon="-1.8699885998"><ele>174.62</ele><time>2014-12-10T12:13:19Z</time></trkpt><trkpt lat="51.9274664484" lon="-1.8699416611"><ele>173.17</ele><time>2014-12-10T12:13:36Z</time></trkpt><trkpt lat="51.9274082780" lon="-1.8699088879"><ele>172.21</ele><time>2014-12-10T12:13:51Z</time></trkpt><trkpt lat="51.9273620937" lon="-1.8698799703"><ele>170.29</ele><time>2014-12-10T12:14:06Z</time></trkpt><trkpt lat="51.9272983912" lon="-1.8698100653"><ele>167.41</ele><time>2014-12-10T12:14:18Z</time></trkpt><trkpt lat="51.9271855708" lon="-1.8696918804"><ele>165.96</ele><time>2014-12-10T12:14:35Z</time></trkpt><trkpt lat="51.9270420726" lon="-1.8695684150"><ele>163.56</ele><time>2014-12-10T12:14:47Z</time></trkpt><trkpt lat="51.9269737601" lon="-1.8694922235"><ele>163.08</ele><time>2014-12-10T12:15:00Z</time></trkpt><trkpt lat="51.9268562458" lon="-1.8693772238"><ele>162.60</ele><time>2014-12-10T12:15:19Z</time></trkpt><trkpt lat="51.9268260710" lon="-1.8693226576"><ele>162.60</ele><time>2014-12-10T12:15:23Z</time></trkpt><trkpt lat="51.9266508054" lon="-1.8691956718"><ele>159.72</ele><time>2014-12-10T12:15:39Z</time></trkpt><trkpt lat="51.9265383203" lon="-1.8690914847"><ele>159.72</ele><time>2014-12-10T12:16:08Z</time></trkpt><trkpt lat="51.9265343808" lon="-1.8690929934"><ele>154.43</ele><time>2014-12-10T12:16:19Z</time></trkpt><trkpt lat="51.9265343808" lon="-1.8690929934"><ele>159.24</ele><time>2014-12-10T12:16:20Z</time></trkpt><trkpt lat="51.9265155215" lon="-1.8691077456"><ele>153.47</ele><time>2014-12-10T12:16:29Z</time></trkpt><trkpt lat="51.9265121687" lon="-1.8691104278"><ele>160.68</ele><time>2014-12-10T12:16:30Z</time></trkpt><trkpt lat="51.9265058823" lon="-1.8691154569"><ele>158.75</ele><time>2014-12-10T12:16:32Z</time></trkpt><trkpt lat="51.9264945667" lon="-1.8691245094"><ele>159.72</ele><time>2014-12-10T12:16:35Z</time></trkpt><trkpt lat="51.9264851790" lon="-1.8691318855"><ele>154.91</ele><time>2014-12-10T12:16:38Z</time></trkpt><trkpt lat="51.9264819100" lon="-1.8691345677"><ele>163.08</ele><time>2014-12-10T12:16:39Z</time></trkpt><trkpt lat="51.9264788926" lon="-1.8691369146"><ele>159.72</ele><time>2014-12-10T12:16:40Z</time></trkpt><trkpt lat="51.9265329558" lon="-1.8691048119"><ele>159.72</ele><time>2014-12-10T12:17:00Z</time></trkpt><trkpt lat="51.9265033677" lon="-1.8691753037"><ele>160.20</ele><time>2014-12-10T12:17:12Z</time></trkpt><trkpt lat="51.9264297746" lon="-1.8691942468"><ele>159.72</ele><time>2014-12-10T12:17:30Z</time></trkpt><trkpt lat="51.9263335504" lon="-1.8690642435"><ele>159.72</ele><time>2014-12-10T12:17:50Z</time></trkpt><trkpt lat="51.9263405912" lon="-1.8690199032"><ele>158.75</ele><time>2014-12-10T12:18:10Z</time></trkpt><trkpt lat="51.9263430219" lon="-1.8690127786"><ele>159.24</ele><time>2014-12-10T12:18:41Z</time></trkpt><trkpt lat="51.9263401721" lon="-1.8690390978"><ele>158.75</ele><time>2014-12-10T12:19:01Z</time></trkpt><trkpt lat="51.9263422675" lon="-1.8690313026"><ele>154.91</ele><time>2014-12-10T12:19:18Z</time></trkpt><trkpt lat="51.9263422675" lon="-1.8690313026"><ele>155.39</ele><time>2014-12-10T12:19:19Z</time></trkpt><trkpt lat="51.9263410941" lon="-1.8690233398"><ele>159.24</ele><time>2014-12-10T12:19:21Z</time></trkpt><trkpt lat="51.9263405073" lon="-1.8690192327"><ele>158.27</ele><time>2014-12-10T12:19:22Z</time></trkpt><trkpt lat="51.9263399206" lon="-1.8690152094"><ele>165.00</ele><time>2014-12-10T12:19:23Z</time></trkpt><trkpt lat="51.9263393339" lon="-1.8690110184"><ele>159.72</ele><time>2014-12-10T12:19:24Z</time></trkpt><trkpt lat="51.9263437763" lon="-1.8690297101"><ele>158.75</ele><time>2014-12-10T12:19:26Z</time></trkpt><trkpt lat="51.9263487216" lon="-1.8690244295"><ele>152.03</ele><time>2014-12-10T12:19:34Z</time></trkpt><trkpt lat="51.9263487216" lon="-1.8690244295"><ele>158.27</ele><time>2014-12-10T12:19:35Z</time></trkpt><trkpt lat="51.9263254199" lon="-1.8690152094"><ele>160.20</ele><time>2014-12-10T12:20:02Z</time></trkpt><trkpt lat="51.9262617175" lon="-1.8687800132"><ele>161.16</ele><time>2014-12-10T12:20:16Z</time></trkpt><trkpt lat="51.9261794910" lon="-1.8684584834"><ele>163.08</ele><time>2014-12-10T12:20:30Z</time></trkpt><trkpt lat="51.9261696003" lon="-1.8684289791"><ele>163.56</ele><time>2014-12-10T12:20:32Z</time></trkpt><trkpt lat="51.9261193089" lon="-1.8682719022"><ele>165.00</ele><time>2014-12-10T12:20:42Z</time></trkpt><trkpt lat="51.9260960910" lon="-1.8681234587"><ele>165.00</ele><time>2014-12-10T12:20:49Z</time></trkpt><trkpt lat="51.9260360766" lon="-1.8678732589"><ele>166.45</ele><time>2014-12-10T12:20:59Z</time></trkpt><trkpt lat="51.9259348232" lon="-1.8675359711"><ele>167.89</ele><time>2014-12-10T12:21:13Z</time></trkpt><trkpt lat="51.9258918241" lon="-1.8673653156"><ele>168.37</ele><time>2014-12-10T12:21:19Z</time></trkpt><trkpt lat="51.9258751441" lon="-1.8672711030"><ele>168.85</ele><time>2014-12-10T12:21:23Z</time></trkpt><trkpt lat="51.9258421194" lon="-1.8672156986"><ele>169.33</ele><time>2014-12-10T12:21:26Z</time></trkpt><trkpt lat="51.9258057419" lon="-1.8671175465"><ele>170.29</ele><time>2014-12-10T12:21:32Z</time></trkpt><trkpt lat="51.9257409498" lon="-1.8670116831"><ele>170.77</ele><time>2014-12-10T12:21:38Z</time></trkpt><trkpt lat="51.9256184064" lon="-1.8668081705"><ele>171.25</ele><time>2014-12-10T12:21:51Z</time></trkpt><trkpt lat="51.9256116170" lon="-1.8667919096"><ele>171.25</ele><time>2014-12-10T12:21:52Z</time></trkpt><trkpt lat="51.9255764969" lon="-1.8667118624"><ele>171.25</ele><time>2014-12-10T12:21:56Z</time></trkpt><trkpt lat="51.9255580567" lon="-1.8666739762"><ele>171.25</ele><time>2014-12-10T12:21:58Z</time></trkpt><trkpt lat="51.9255193323" lon="-1.8665869720"><ele>171.25</ele><time>2014-12-10T12:22:02Z</time></trkpt><trkpt lat="51.9254050869" lon="-1.8663941883"><ele>172.69</ele><time>2014-12-10T12:22:16Z</time></trkpt><trkpt lat="51.9253444858" lon="-1.8663282227"><ele>173.66</ele><time>2014-12-10T12:22:26Z</time></trkpt><trkpt lat="51.9253043365" lon="-1.8663029931"><ele>174.14</ele><time>2014-12-10T12:22:30Z</time></trkpt><trkpt lat="51.9252498541" lon="-1.8662693817"><ele>174.62</ele><time>2014-12-10T12:22:34Z</time></trkpt><trkpt lat="51.9252057653" lon="-1.8662216049"><ele>175.10</ele><time>2014-12-10T12:22:37Z</time></trkpt><trkpt lat="51.9250358641" lon="-1.8661321700"><ele>175.58</ele><time>2014-12-10T12:22:50Z</time></trkpt><trkpt lat="51.9249683060" lon="-1.8661201000"><ele>176.06</ele><time>2014-12-10T12:22:54Z</time></trkpt><trkpt lat="51.9248999935" lon="-1.8661029171"><ele>176.54</ele><time>2014-12-10T12:22:58Z</time></trkpt><trkpt lat="51.9246357959" lon="-1.8661312480"><ele>175.10</ele><time>2014-12-10T12:23:15Z</time></trkpt><trkpt lat="51.9246103149" lon="-1.8661459163"><ele>175.10</ele><time>2014-12-10T12:23:17Z</time></trkpt><trkpt lat="51.9245470315" lon="-1.8661656138"><ele>174.62</ele><time>2014-12-10T12:23:21Z</time></trkpt><trkpt lat="51.9242923055" lon="-1.8662243709"><ele>172.21</ele><time>2014-12-10T12:23:38Z</time></trkpt><trkpt lat="51.9241371565" lon="-1.8661777675"><ele>170.29</ele><time>2014-12-10T12:23:46Z</time></trkpt><trkpt lat="51.9239696022" lon="-1.8661030848"><ele>169.33</ele><time>2014-12-10T12:23:58Z</time></trkpt><trkpt lat="51.9238165487" lon="-1.8659846485"><ele>167.89</ele><time>2014-12-10T12:24:12Z</time></trkpt><trkpt lat="51.9237020519" lon="-1.8659270648"><ele>167.89</ele><time>2014-12-10T12:24:23Z</time></trkpt><trkpt lat="51.9236914907" lon="-1.8659254722"><ele>168.37</ele><time>2014-12-10T12:24:24Z</time></trkpt><trkpt lat="51.9236681890" lon="-1.8659118935"><ele>168.37</ele><time>2014-12-10T12:24:27Z</time></trkpt><trkpt lat="51.9236403611" lon="-1.8658725824"><ele>168.37</ele><time>2014-12-10T12:24:30Z</time></trkpt><trkpt lat="51.9236013014" lon="-1.8658176810"><ele>168.85</ele><time>2014-12-10T12:24:36Z</time></trkpt><trkpt lat="51.9235769939" lon="-1.8658030964"><ele>169.33</ele><time>2014-12-10T12:24:39Z</time></trkpt><trkpt lat="51.9234438054" lon="-1.8657213729"><ele>170.29</ele><time>2014-12-10T12:24:54Z</time></trkpt><trkpt lat="51.9234360103" lon="-1.8657196127"><ele>170.77</ele><time>2014-12-10T12:24:55Z</time></trkpt><trkpt lat="51.9233313203" lon="-1.8656634539"><ele>171.73</ele><time>2014-12-10T12:25:07Z</time></trkpt><trkpt lat="51.9233058393" lon="-1.8656341173"><ele>172.69</ele><time>2014-12-10T12:25:11Z</time></trkpt><trkpt lat="51.9232883211" lon="-1.8656131625"><ele>173.17</ele><time>2014-12-10T12:25:13Z</time></trkpt><trkpt lat="51.9232290611" lon="-1.8655648828"><ele>173.17</ele><time>2014-12-10T12:25:18Z</time></trkpt><trkpt lat="51.9230912626" lon="-1.8654676527"><ele>174.14</ele><time>2014-12-10T12:25:30Z</time></trkpt><trkpt lat="51.9229594152" lon="-1.8654092308"><ele>175.10</ele><time>2014-12-10T12:25:42Z</time></trkpt><trkpt lat="51.9229495246" lon="-1.8654069677"><ele>175.58</ele><time>2014-12-10T12:25:43Z</time></trkpt><trkpt lat="51.9228925277" lon="-1.8653737754"><ele>175.10</ele><time>2014-12-10T12:25:48Z</time></trkpt><trkpt lat="51.9228044339" lon="-1.8652641401"><ele>175.58</ele><time>2014-12-10T12:25:56Z</time></trkpt><trkpt lat="51.9227528851" lon="-1.8652731925"><ele>175.58</ele><time>2014-12-10T12:26:06Z</time></trkpt><trkpt lat="51.9226489495" lon="-1.8652541656"><ele>176.06</ele><time>2014-12-10T12:26:17Z</time></trkpt><trkpt lat="51.9224679843" lon="-1.8651753757"><ele>177.50</ele><time>2014-12-10T12:26:31Z</time></trkpt><trkpt lat="51.9223703351" lon="-1.8651123438"><ele>177.02</ele><time>2014-12-10T12:26:39Z</time></trkpt><trkpt lat="51.9223203789" lon="-1.8650822528"><ele>177.98</ele><time>2014-12-10T12:26:43Z</time></trkpt><trkpt lat="51.9221456163" lon="-1.8650461268"><ele>177.02</ele><time>2014-12-10T12:26:58Z</time></trkpt><trkpt lat="51.9220222346" lon="-1.8650252558"><ele>177.98</ele><time>2014-12-10T12:27:08Z</time></trkpt><trkpt lat="51.9219165388" lon="-1.8650627229"><ele>178.46</ele><time>2014-12-10T12:27:16Z</time></trkpt><trkpt lat="51.9217592943" lon="-1.8650909699"><ele>177.50</ele><time>2014-12-10T12:27:28Z</time></trkpt><trkpt lat="51.9216756430" lon="-1.8650252558"><ele>177.02</ele><time>2014-12-10T12:27:39Z</time></trkpt><trkpt lat="51.9216665905" lon="-1.8649774790"><ele>176.06</ele><time>2014-12-10T12:27:49Z</time></trkpt><trkpt lat="51.9215995353" lon="-1.8647468090"><ele>175.58</ele><time>2014-12-10T12:28:00Z</time></trkpt><trkpt lat="51.9215701986" lon="-1.8646194879"><ele>174.62</ele><time>2014-12-10T12:28:07Z</time></trkpt><trkpt lat="51.9215311389" lon="-1.8644511793"><ele>174.14</ele><time>2014-12-10T12:28:15Z</time></trkpt><trkpt lat="51.9214556180" lon="-1.8642232753"><ele>173.66</ele><time>2014-12-10T12:28:28Z</time></trkpt><trkpt lat="51.9214477390" lon="-1.8641601596"><ele>173.66</ele><time>2014-12-10T12:28:32Z</time></trkpt><trkpt lat="51.9213949330" lon="-1.8640531227"><ele>172.69</ele><time>2014-12-10T12:28:39Z</time></trkpt><trkpt lat="51.9213735592" lon="-1.8640131410"><ele>172.21</ele><time>2014-12-10T12:28:43Z</time></trkpt><trkpt lat="51.9213610701" lon="-1.8639342673"><ele>173.17</ele><time>2014-12-10T12:28:47Z</time></trkpt><trkpt lat="51.9213377684" lon="-1.8638949562"><ele>172.21</ele><time>2014-12-10T12:28:50Z</time></trkpt><trkpt lat="51.9213192444" lon="-1.8636535574"><ele>171.73</ele><time>2014-12-10T12:29:03Z</time></trkpt><trkpt lat="51.9212791789" lon="-1.8634304311"><ele>171.25</ele><time>2014-12-10T12:29:14Z</time></trkpt><trkpt lat="51.9213586394" lon="-1.8633607775"><ele>171.73</ele><time>2014-12-10T12:29:26Z</time></trkpt><trkpt lat="51.9213558733" lon="-1.8633385655"><ele>171.25</ele><time>2014-12-10T12:29:40Z</time></trkpt></trkseg></trk></gpx>